Main page
METAR-TAF:

METAR-TAF

Airports :

Leonardo da Vinci–Fiumicino Airport

Rome-Fiumicino, Italy

latitude: 41-48N, longitude: 012-14E, elevation: 2 m

Current weather observation

The report was made 37 minutes ago, at 22:20 UTC
Wind 3 kt from the North
Temperature 21°C
Humidity 73%
Pressure 1016 hPa
Visibility 10 km or more
no clouds below 1500 m and no cumulonimbus

METAR: LIRF 092220Z 36003KT CAVOK 21/16 Q1016 NOSIG

Time: 00:57 (22:57 UTC)

Forecast

The report was made 5 hours and 57 minutes ago, at 17:00 UTC
Forecast valid from 09 at 18 UTC to 10 at 24 UTC
Wind 8 kt from the Northeast
Visibility 10 km or more
Few clouds at a height of 3000 ft
Becoming
from 10 at 09 UTC to 10 at 11 UTC
Wind 12 kt from the West/Northwest
Temporary
from 10 at 13 UTC to 10 at 18 UTC
Visibility: 4000 m
rain showers
Becoming
from 10 at 18 UTC to 10 at 20 UTC
Wind 8 kt from the Northeast

TAF: LIRF 091700Z 0918/1024 04008KT 9999 FEW030 BECMG 1009/1011 29012KT TEMPO 1013/1018 4000 SHRA BECMG 1018/1020 04008KT

Weather observations and forecasts of more than 4000 airports (METAR and TAF reports).

The available stations are represented by yellow and red dots on the map.

Hover mouse over dot to see the name of the station.

Then click to see weather observations and forecasts.

To change the map : click on the green buttons with a black cross to zoom in, on the green button with a dash to zoom out, or on the green arrows for adjacent maps.


METAR-TAF: